Time;durP1;ratioP1;P1;durP2;ratioP2;P2;SDS_P1;SDS_P2;PMS_P1;PMS_P2;Temp;Humidity;BMP_temperature;BMP_pressure;BME280_temperature;BME280_humidity;BME280_pressure;Samples;Min_cycle;Max_cycle;Signal;HPM_P1;HPM_P2
2022/12/28 00:03:02;;;;;;;2.65;1.15;;;;;;;4.63;70.94;99945.44;5050159;28;20072;-68
2022/12/28 00:05:47;;;;;;;2.42;1.20;;;;;;;4.60;71.19;99947.25;5049138;28;20037;-67
2022/12/28 00:08:32;;;;;;;2.28;1.00;;;;;;;4.70;71.21;99943.53;5038358;28;20055;-66
2022/12/28 00:11:19;;;;;;;2.45;1.00;;;;;;;4.63;71.18;99939.41;5048562;28;20523;-68
2022/12/28 00:14:04;;;;;;;1.75;0.90;;;;;;;4.62;70.87;99935.09;5050059;28;20056;-67
2022/12/28 00:16:49;;;;;;;2.60;1.23;;;;;;;4.50;71.09;99938.84;5049269;28;20411;-67
2022/12/28 00:19:33;;;;;;;2.55;1.02;;;;;;;4.32;72.72;99939.22;5049982;28;20049;-68
2022/12/28 00:22:18;;;;;;;4.32;1.45;;;;;;;4.11;74.28;99945.81;5048818;28;20037;-66
2022/12/28 00:25:03;;;;;;;3.10;1.25;;;;;;;4.04;74.86;99937.31;5038640;28;20607;-66
2022/12/28 00:27:48;;;;;;;2.10;1.13;;;;;;;3.99;75.47;99930.50;5049736;28;20087;-66
2022/12/28 00:30:33;;;;;;;2.28;1.20;;;;;;;3.98;75.33;99921.03;5049740;28;20112;-66
2022/12/28 00:33:18;;;;;;;1.85;1.10;;;;;;;4.03;73.27;99930.41;5049038;28;20047;-66
2022/12/28 00:36:03;;;;;;;1.50;1.10;;;;;;;4.01;73.41;99932.19;5048287;28;20468;-66
2022/12/28 00:38:52;;;;;;;2.75;1.33;;;;;;;4.05;71.94;99933.81;5048392;28;20540;-67
2022/12/28 00:41:37;;;;;;;3.15;1.13;;;;;;;4.12;72.68;99928.47;5048784;28;20053;-66
2022/12/28 00:44:22;;;;;;;2.17;0.95;;;;;;;4.17;69.71;99932.69;5037928;28;20198;-66
2022/12/28 00:47:06;;;;;;;1.95;1.20;;;;;;;4.07;70.30;99931.19;5049778;28;20041;-65
2022/12/28 00:49:51;;;;;;;2.00;1.10;;;;;;;4.10;69.34;99941.50;5049618;28;20499;-67
2022/12/28 00:52:36;;;;;;;2.28;1.48;;;;;;;4.12;69.98;99937.13;5039311;28;20037;-67
2022/12/28 00:55:21;;;;;;;2.10;1.05;;;;;;;4.08;68.76;99935.47;5049100;28;20120;-66
2022/12/28 00:58:06;;;;;;;1.92;1.00;;;;;;;4.06;68.51;99934.69;5049869;28;20135;-66
2022/12/28 01:00:51;;;;;;;2.95;1.10;;;;;;;4.04;68.30;99942.50;5052729;28;20053;-67
2022/12/28 01:03:35;;;;;;;3.05;1.10;;;;;;;3.99;68.20;99931.38;5053064;28;20068;-66
2022/12/28 01:06:20;;;;;;;2.38;1.13;;;;;;;4.01;68.30;99936.53;5052089;28;20045;-66
2022/12/28 01:09:04;;;;;;;2.00;1.27;;;;;;;4.05;67.43;99939.00;5052178;28;20053;-67
2022/12/28 01:11:49;;;;;;;4.70;1.55;;;;;;;4.02;66.89;99938.22;5043893;28;20080;-66
2022/12/28 01:14:34;;;;;;;3.08;1.20;;;;;;;4.00;67.46;99933.06;5031474;28;20042;-67
2022/12/28 01:17:19;;;;;;;2.70;1.27;;;;;;;3.94;67.18;99934.06;5049074;28;20147;-67
2022/12/28 01:20:06;;;;;;;2.72;1.45;;;;;;;3.90;66.99;99934.19;5039751;28;20053;-65
2022/12/28 01:22:51;;;;;;;3.72;1.35;;;;;;;3.87;67.22;99921.28;5052742;28;20488;-67
2022/12/28 01:25:35;;;;;;;2.00;1.10;;;;;;;3.86;68.39;99928.19;5051581;28;20168;-68
2022/12/28 01:28:20;;;;;;;2.53;1.30;;;;;;;3.74;67.78;99931.06;5027494;28;20132;-66
2022/12/28 01:31:14;;;;;;;2.50;1.63;;;;;;;3.75;67.55;99933.63;5052760;28;20045;-66
2022/12/28 01:33:59;;;;;;;2.25;1.17;;;;;;;3.77;67.45;99934.44;5051313;28;20492;-68
2022/12/28 01:36:44;;;;;;;2.95;1.50;;;;;;;3.88;66.69;99922.97;5053301;28;20099;-66
2022/12/28 01:39:29;;;;;;;2.22;1.20;;;;;;;3.94;66.87;99931.47;5040240;28;20170;-65
2022/12/28 01:42:18;;;;;;;1.63;1.15;;;;;;;3.95;66.78;99929.72;5051665;28;20044;-66
2022/12/28 01:45:15;;;;;;;2.35;1.48;;;;;;;3.96;66.12;99925.38;5037119;28;20385;-68
2022/12/28 01:48:00;;;;;;;3.40;1.35;;;;;;;3.90;66.43;99929.00;5051543;28;20048;-66
2022/12/28 01:50:45;;;;;;;1.80;1.15;;;;;;;3.86;66.02;99924.75;5052856;28;20055;-67
2022/12/28 01:53:30;;;;;;;4.15;1.20;;;;;;;3.84;65.93;99917.00;5052247;28;20049;-66
2022/12/28 01:56:15;;;;;;;2.65;1.23;;;;;;;3.91;65.60;99917.72;5051250;28;20044;-66
2022/12/28 01:59:01;;;;;;;2.80;1.50;;;;;;;3.85;66.07;99910.94;5017471;28;20060;-67
2022/12/28 02:01:46;;;;;;;3.38;1.20;;;;;;;3.85;66.55;99910.09;5052101;28;20052;-67
2022/12/28 02:04:31;;;;;;;3.45;1.65;;;;;;;3.98;66.75;99913.25;5052204;28;20049;-66
2022/12/28 02:07:30;;;;;;;2.42;1.65;;;;;;;3.98;66.07;99908.94;5037879;28;20061;-67
2022/12/28 02:10:17;;;;;;;3.20;1.50;;;;;;;3.85;66.79;99908.34;5041944;28;20064;-67
2022/12/28 02:13:04;;;;;;;3.80;1.60;;;;;;;3.78;67.25;99902.44;5039527;28;20127;-67
2022/12/28 02:15:49;;;;;;;3.17;1.58;;;;;;;3.76;68.40;99900.75;5050777;28;20048;-68
2022/12/28 02:18:37;;;;;;;2.88;1.70;;;;;;;3.78;68.50;99896.41;5050553;28;20041;-67
2022/12/28 02:21:23;;;;;;;2.83;1.60;;;;;;;3.76;68.44;99895.56;5038249;28;20045;-67
2022/12/28 02:24:23;;;;;;;3.72;1.60;;;;;;;3.75;67.37;99889.56;5050513;28;20045;-65
2022/12/28 02:27:23;;;;;;;2.72;1.42;;;;;;;3.68;67.42;99887.97;5050601;28;20404;-67
2022/12/28 02:30:11;;;;;;;3.53;1.23;;;;;;;3.78;66.36;99883.44;5041675;28;20499;-67
2022/12/28 02:33:14;;;;;;;2.83;1.38;;;;;;;3.88;65.35;99884.94;5039194;28;20315;-67
2022/12/28 02:36:12;;;;;;;3.50;1.52;;;;;;;3.84;65.47;99878.09;5050090;28;20061;-67
2022/12/28 02:39:05;;;;;;;2.20;1.35;;;;;;;3.74;65.65;99869.69;5051024;28;20041;-66
2022/12/28 02:41:51;;;;;;;4.15;1.88;;;;;;;3.76;65.18;99861.88;5036067;28;20130;-68
2022/12/28 02:51:13;;;;;;;2.78;1.30;;;;;;;3.78;65.76;99841.97;5041049;28;20045;-67
2022/12/28 02:54:09;;;;;;;2.85;1.65;;;;;;;3.72;65.10;99837.75;5050420;28;20119;-67
2022/12/28 02:57:03;;;;;;;2.60;1.40;;;;;;;3.43;66.07;99823.72;5050738;28;20073;-67
2022/12/28 03:00:08;;;;;;;3.33;1.58;;;;;;;3.41;66.33;99822.91;5048190;28;20037;-67
2022/12/28 03:03:40;;;;;;;1.90;1.23;;;;;;;3.35;67.81;99815.25;5051092;28;20080;-66
2022/12/28 03:10:00;;;;;;;2.40;1.58;;;;;;;3.19;68.88;99808.69;5047792;28;20003;-67
2022/12/28 03:13:04;;;;;;;2.35;1.58;;;;;;;3.15;69.76;99807.03;5045492;28;20128;-66
2022/12/28 03:15:51;;;;;;;2.75;1.20;;;;;;;3.03;71.67;99807.31;5034099;28;20518;-69
2022/12/28 03:31:05;;;;;;;2.42;1.55;;;;;;;2.87;71.98;99786.06;5033891;28;20041;-68
2022/12/28 03:34:05;;;;;;;2.92;1.45;;;;;;;2.89;71.24;99781.72;5061991;28;20476;-69
2022/12/28 03:37:15;;;;;;;3.30;1.75;;;;;;;2.87;70.50;99770.53;5017497;28;20061;-68
2022/12/28 03:40:07;;;;;;;3.97;1.65;;;;;;;2.84;69.88;99781.78;5025424;28;20619;-66
2022/12/28 03:46:28;;;;;;;2.90;1.40;;;;;;;2.75;69.53;99780.25;5022445;28;20386;-66
2022/12/28 03:49:13;;;;;;;4.32;1.58;;;;;;;2.73;70.35;99782.00;5022959;28;20049;-67
2022/12/28 03:52:01;;;;;;;2.55;1.50;;;;;;;2.74;69.84;99782.88;4998168;28;20052;-67
2022/12/28 03:54:46;;;;;;;3.20;1.55;;;;;;;2.87;69.09;99778.28;5026273;28;20049;-67
2022/12/28 03:57:33;;;;;;;3.60;1.52;;;;;;;2.90;67.85;99771.31;5029977;28;20045;-67
2022/12/28 04:00:19;;;;;;;1.48;1.00;;;;;;;2.97;67.81;99766.00;5029651;28;20128;-67
2022/12/28 04:03:07;;;;;;;2.80;1.40;;;;;;;2.99;66.70;99761.66;5015220;28;20096;-67
2022/12/28 04:05:54;;;;;;;3.55;1.45;;;;;;;2.94;67.94;99759.13;5015696;28;20057;-67
2022/12/28 04:08:38;;;;;;;2.42;1.40;;;;;;;3.03;66.43;99747.75;5029644;28;20053;-66
2022/12/28 04:11:24;;;;;;;2.05;1.20;;;;;;;3.06;66.20;99750.28;5045050;28;20049;-67
2022/12/28 04:14:11;;;;;;;2.95;1.30;;;;;;;3.08;66.45;99751.09;5047915;28;20412;-68
2022/12/28 04:16:59;;;;;;;2.15;1.25;;;;;;;3.01;66.23;99747.78;5022098;28;20071;-67
2022/12/28 04:19:44;;;;;;;3.97;1.30;;;;;;;3.12;65.86;99739.78;5024212;28;20448;-67
2022/12/28 04:22:29;;;;;;;3.78;1.33;;;;;;;3.05;66.38;99736.47;5049840;28;20484;-67
2022/12/28 04:25:16;;;;;;;2.65;1.40;;;;;;;2.92;66.40;99727.28;5048776;28;20877;-67
2022/12/28 04:28:01;;;;;;;3.28;1.10;;;;;;;2.93;66.50;99727.25;5049023;28;20143;-67
2022/12/28 04:31:08;;;;;;;1.85;1.10;;;;;;;2.99;66.33;99723.66;5040245;28;20049;-67
2022/12/28 04:33:58;;;;;;;2.08;1.13;;;;;;;2.94;66.28;99728.06;5051449;28;20056;-66
2022/12/28 04:36:43;;;;;;;1.85;1.05;;;;;;;2.97;66.51;99716.81;5051556;28;21068;-66
2022/12/28 04:39:32;;;;;;;2.67;1.27;;;;;;;2.77;67.73;99724.13;5052833;28;20404;-67
2022/12/28 04:42:16;;;;;;;3.13;1.58;;;;;;;2.66;69.50;99715.75;5042833;28;20045;-66
2022/12/28 04:45:01;;;;;;;2.55;1.38;;;;;;;2.51;69.84;99722.06;5052807;28;20051;-67
2022/12/28 04:47:45;;;;;;;2.75;1.40;;;;;;;2.48;70.64;99716.97;5053336;28;20500;-66
2022/12/28 04:50:30;;;;;;;1.98;1.23;;;;;;;2.51;70.85;99712.59;5053549;28;20041;-67
2022/12/28 04:53:14;;;;;;;4.43;1.60;;;;;;;2.47;70.91;99716.09;5053569;28;20075;-66
2022/12/28 04:56:03;;;;;;;3.10;1.58;;;;;;;2.31;71.05;99711.25;5052351;28;20128;-67
2022/12/28 04:58:51;;;;;;;4.07;1.60;;;;;;;2.31;70.51;99711.25;5053391;28;20310;-66
2022/12/28 05:01:36;;;;;;;3.33;1.42;;;;;;;2.24;70.86;99703.63;5044329;28;20506;-65
2022/12/28 05:04:21;;;;;;;2.33;1.20;;;;;;;2.24;71.29;99706.22;5052809;28;20041;-67
2022/12/28 05:07:05;;;;;;;3.80;1.55;;;;;;;2.22;71.72;99712.25;5052822;28;20137;-67
2022/12/28 05:09:50;;;;;;;4.07;1.50;;;;;;;2.25;71.85;99708.78;5052444;28;20048;-67
2022/12/28 05:12:35;;;;;;;3.25;1.55;;;;;;;2.25;72.38;99710.50;5052405;28;20113;-66
2022/12/28 05:15:20;;;;;;;2.25;1.30;;;;;;;2.25;71.56;99708.78;5052277;28;20053;-65
2022/12/28 05:18:04;;;;;;;2.25;1.55;;;;;;;2.02;73.16;99702.31;5053030;28;20242;-66
2022/12/28 05:20:49;;;;;;;3.03;1.70;;;;;;;1.84;73.01;99701.72;5052421;28;20136;-66
2022/12/28 05:23:36;;;;;;;3.33;1.63;;;;;;;1.82;74.50;99692.31;5052613;28;20056;-66
2022/12/28 05:26:23;;;;;;;2.35;1.52;;;;;;;1.75;74.25;99688.13;5051706;28;20049;-66
2022/12/28 05:29:08;;;;;;;2.95;1.70;;;;;;;1.79;74.29;99676.84;5052181;28;20477;-66
2022/12/28 05:31:52;;;;;;;3.78;1.55;;;;;;;1.86;73.92;99683.59;5051421;28;20068;-66
2022/12/28 05:34:37;;;;;;;3.15;1.55;;;;;;;1.80;74.12;99676.81;5053147;28;20051;-67
2022/12/28 05:37:22;;;;;;;2.58;1.40;;;;;;;1.82;74.28;99680.25;5041095;28;20094;-67
2022/12/28 05:40:07;;;;;;;3.67;1.60;;;;;;;1.72;74.67;99686.44;5051219;28;20072;-67
2022/12/28 05:42:51;;;;;;;3.05;1.60;;;;;;;1.38;76.03;99695.59;5052316;28;20049;-67
2022/12/28 05:45:36;;;;;;;3.03;2.00;;;;;;;1.39;75.90;99686.16;5052698;28;20098;-67
2022/12/28 05:48:21;;;;;;;4.95;1.92;;;;;;;1.51;75.99;99678.19;5052297;28;20068;-67
2022/12/28 05:51:09;;;;;;;3.85;1.88;;;;;;;1.56;76.03;99683.28;5079526;28;20144;-67
2022/12/28 05:53:54;;;;;;;3.67;1.90;;;;;;;1.72;76.28;99668.34;5051272;28;20127;-66
2022/12/28 05:56:39;;;;;;;2.90;1.77;;;;;;;1.75;75.60;99670.88;5039515;28;20067;-67
2022/12/28 05:59:23;;;;;;;3.50;2.08;;;;;;;1.76;75.55;99674.34;5051889;28;20055;-66
2022/12/28 06:02:08;;;;;;;3.88;1.92;;;;;;;1.49;76.46;99672.19;5051917;28;20040;-66
2022/12/28 06:04:53;;;;;;;2.95;2.00;;;;;;;1.39;76.50;99673.22;5052294;28;20404;-67
2022/12/28 06:07:38;;;;;;;4.22;2.00;;;;;;;1.56;76.71;99678.97;5052203;28;20357;-68
2022/12/28 06:10:22;;;;;;;2.95;1.75;;;;;;;1.40;76.52;99683.53;5051691;28;20053;-66
2022/12/28 06:13:07;;;;;;;3.50;2.00;;;;;;;1.29;77.35;99690.59;5039924;28;20087;-67
2022/12/28 06:15:51;;;;;;;4.18;2.15;;;;;;;1.33;77.36;99681.91;5051958;28;20045;-66
2022/12/28 06:18:36;;;;;;;3.40;2.08;;;;;;;1.42;76.96;99691.25;5051891;28;20205;-67
2022/12/28 06:21:27;;;;;;;6.05;2.05;;;;;;;1.51;76.10;99685.06;5041271;28;20058;-67
2022/12/28 06:24:12;;;;;;;4.20;1.73;;;;;;;1.71;75.23;99684.75;5050569;28;20187;-67
2022/12/28 06:26:57;;;;;;;4.45;1.92;;;;;;;1.77;74.30;99679.47;5051722;28;20098;-67
2022/12/28 06:29:41;;;;;;;5.05;1.70;;;;;;;1.62;75.49;99685.75;5051575;28;20045;-66
2022/12/28 06:32:26;;;;;;;3.97;2.20;;;;;;;1.55;76.00;99690.16;5051891;28;20048;-66
2022/12/28 06:35:11;;;;;;;4.70;2.88;;;;;;;1.51;76.19;99693.69;5051507;28;20041;-68
2022/12/28 06:37:55;;;;;;;4.43;2.60;;;;;;;1.30;77.24;99695.72;5078593;28;20057;-67
2022/12/28 06:40:41;;;;;;;4.55;2.63;;;;;;;1.51;76.75;99691.09;5039708;28;20175;-67
2022/12/28 06:43:25;;;;;;;4.95;2.67;;;;;;;1.83;75.58;99687.09;5050761;28;20476;-67
2022/12/28 06:46:11;;;;;;;4.60;2.20;;;;;;;2.29;74.06;99687.13;5050978;28;20480;-66
2022/12/28 06:48:57;;;;;;;5.70;2.38;;;;;;;2.51;72.79;99697.06;5050129;28;20040;-67
2022/12/28 06:51:41;;;;;;;3.50;2.10;;;;;;;2.63;72.80;99697.69;5051506;28;20056;-67
2022/12/28 06:54:26;;;;;;;5.03;2.88;;;;;;;2.27;73.45;99706.16;5051121;28;20065;-67
2022/12/28 06:57:10;;;;;;;4.50;2.35;;;;;;;2.14;72.97;99696.03;5050844;28;20076;-68
2022/12/28 06:59:55;;;;;;;4.72;2.33;;;;;;;2.71;71.09;99686.28;5040430;28;20188;-68
2022/12/28 07:02:40;;;;;;;4.45;2.80;;;;;;;2.78;70.59;99686.16;5049486;28;20041;-67
2022/12/28 07:05:24;;;;;;;4.82;2.80;;;;;;;3.11;68.87;99672.47;5049406;28;20045;-66
2022/12/28 07:08:09;;;;;;;4.80;2.65;;;;;;;2.93;69.46;99672.03;5049793;28;20117;-65
2022/12/28 07:10:54;;;;;;;4.03;2.70;;;;;;;2.47;71.57;99682.47;5050385;28;20053;-66
2022/12/28 07:13:40;;;;;;;6.15;3.30;;;;;;;3.42;69.30;99670.03;5050551;28;20121;-66
2022/12/28 07:16:26;;;;;;;4.35;2.53;;;;;;;3.59;67.15;99668.72;5037685;28;20124;-67
2022/12/28 07:19:10;;;;;;;5.10;2.90;;;;;;;3.53;68.59;99669.75;5035497;28;20057;-67
2022/12/28 07:21:55;;;;;;;6.28;2.83;;;;;;;3.33;67.84;99662.44;5050275;28;20102;-66
2022/12/28 07:24:40;;;;;;;3.28;2.20;;;;;;;3.85;68.02;99672.41;5050768;28;20074;-68
2022/12/28 07:27:24;;;;;;;6.80;2.83;;;;;;;3.97;66.31;99653.06;5050188;28;20136;-68
2022/12/28 07:30:09;;;;;;;6.75;2.45;;;;;;;3.39;67.29;99651.97;5049849;28;20457;-68
2022/12/28 07:32:54;;;;;;;5.65;2.65;;;;;;;3.46;69.28;99647.47;5050387;28;20051;-67
2022/12/28 07:35:39;;;;;;;5.63;3.35;;;;;;;3.72;68.26;99648.53;5036781;28;20448;-67
2022/12/28 07:38:23;;;;;;;6.93;3.35;;;;;;;4.10;66.27;99648.41;5049655;28;20047;-67
2022/12/28 07:41:12;;;;;;;6.25;2.80;;;;;;;3.96;65.85;99646.19;5050062;28;20041;-67
2022/12/28 07:43:58;;;;;;;6.00;3.28;;;;;;;3.59;67.28;99639.41;5039723;28;20052;-67
2022/12/28 07:46:43;;;;;;;7.75;3.45;;;;;;;3.16;69.90;99636.97;5049854;28;20060;-67
2022/12/28 07:49:27;;;;;;;7.32;4.25;;;;;;;2.51;71.88;99645.31;5047820;28;20377;-67
2022/12/28 07:52:13;;;;;;;5.53;2.80;;;;;;;2.36;72.10;99638.72;5050307;28;20087;-67
2022/12/28 07:54:57;;;;;;;5.55;2.65;;;;;;;2.62;72.43;99634.72;5037400;28;20510;-67
2022/12/28 07:57:42;;;;;;;7.32;3.45;;;;;;;2.62;71.21;99633.88;5049545;28;20041;-67
2022/12/28 08:00:26;;;;;;;6.53;2.80;;;;;;;2.86;71.18;99639.41;5049707;28;20124;-66
2022/12/28 08:03:11;;;;;;;5.53;2.63;;;;;;;3.26;69.49;99629.84;5038725;28;20503;-67
2022/12/28 08:06:22;;;;;;;4.95;2.83;;;;;;;3.41;69.85;99623.44;5048309;28;20553;-68
2022/12/28 08:09:08;;;;;;;7.72;2.70;;;;;;;3.11;69.60;99631.91;5051252;28;20267;-68
2022/12/28 08:11:53;;;;;;;5.40;3.03;;;;;;;3.27;69.37;99628.94;5052817;28;20057;-68
2022/12/28 08:14:37;;;;;;;5.20;2.92;;;;;;;3.03;70.15;99633.81;5053022;28;20386;-68
2022/12/28 08:17:22;;;;;;;4.05;2.65;;;;;;;2.96;71.73;99638.28;5053640;28;20060;-68
2022/12/28 08:20:07;;;;;;;4.75;2.85;;;;;;;3.16;70.40;99650.78;5053328;28;20541;-68
2022/12/28 08:22:52;;;;;;;5.22;2.88;;;;;;;2.90;71.65;99652.25;5041870;28;20064;-67
2022/12/28 08:25:37;;;;;;;4.35;3.17;;;;;;;3.43;69.81;99655.31;5051577;28;20091;-67
2022/12/28 08:28:21;;;;;;;5.75;2.72;;;;;;;4.12;67.90;99662.19;5052071;28;20132;-67
2022/12/28 08:31:12;;;;;;;5.25;2.90;;;;;;;4.44;66.02;99665.63;5053756;28;20411;-67
2022/12/28 08:33:58;;;;;;;4.18;2.70;;;;;;;4.67;65.44;99669.28;5039553;28;20080;-67
2022/12/28 08:36:43;;;;;;;5.43;3.38;;;;;;;4.64;65.28;99665.91;5053728;28;20044;-68
2022/12/28 08:39:28;;;;;;;4.90;3.20;;;;;;;4.09;66.72;99667.47;5053394;28;20045;-68
2022/12/28 08:42:12;;;;;;;4.50;3.17;;;;;;;4.15;66.75;99671.63;5042530;28;20191;-68
2022/12/28 08:44:57;;;;;;;7.07;3.70;;;;;;;4.15;66.23;99671.63;5052230;28;20060;-68
2022/12/28 08:47:42;;;;;;;4.70;3.30;;;;;;;4.29;65.43;99682.47;5053342;28;20045;-68
2022/12/28 08:50:26;;;;;;;8.73;3.72;;;;;;;4.56;66.63;99686.91;5043479;28;20069;-68
2022/12/28 08:53:11;;;;;;;6.47;3.88;;;;;;;4.22;66.72;99686.13;5052675;28;20041;-68
2022/12/28 08:56:05;;;;;;;8.73;4.18;;;;;;;4.44;66.53;99688.09;5053263;28;20100;-68
2022/12/28 08:58:50;;;;;;;5.43;3.53;;;;;;;4.31;66.59;99679.81;5053045;28;20045;-68
2022/12/28 09:01:37;;;;;;;5.80;3.63;;;;;;;4.20;66.24;99672.34;5053305;28;20435;-68
2022/12/28 09:04:22;;;;;;;5.65;3.55;;;;;;;4.27;67.02;99666.09;5037708;28;20251;-68
2022/12/28 09:07:07;;;;;;;6.32;3.47;;;;;;;4.01;67.95;99682.38;5052889;28;20542;-68
2022/12/28 09:09:52;;;;;;;6.32;3.42;;;;;;;4.67;66.11;99687.47;5037984;28;20080;-68
2022/12/28 09:12:36;;;;;;;6.15;2.95;;;;;;;4.84;64.91;99680.91;5051547;28;20128;-68
2022/12/28 09:15:21;;;;;;;6.18;3.70;;;;;;;4.29;66.97;99677.28;5052719;28;20496;-68
2022/12/28 09:18:08;;;;;;;6.80;3.30;;;;;;;4.15;65.95;99671.63;5041681;28;20040;-68
2022/12/28 09:20:53;;;;;;;5.82;2.97;;;;;;;4.19;67.41;99678.44;5053140;28;20183;-68
2022/12/28 09:23:38;;;;;;;6.78;4.22;;;;;;;4.18;66.96;99681.91;5052618;28;20495;-68
2022/12/28 09:26:25;;;;;;;5.10;2.90;;;;;;;4.29;67.11;99686.81;5052693;28;20524;-68
2022/12/28 09:29:12;;;;;;;7.63;3.35;;;;;;;4.72;66.22;99679.53;5052010;28;20470;-68
2022/12/28 09:31:58;;;;;;;6.00;3.30;;;;;;;4.54;66.25;99666.19;5037486;28;20049;-68
2022/12/28 09:34:42;;;;;;;7.68;3.50;;;;;;;4.21;67.49;99676.63;5053006;28;20099;-68
2022/12/28 09:37:28;;;;;;;5.57;3.13;;;;;;;4.60;66.38;99672.97;5041879;28;20036;-67
2022/12/28 09:40:13;;;;;;;5.78;3.85;;;;;;;4.42;65.51;99664.81;5052709;28;20124;-67
2022/12/28 09:42:57;;;;;;;7.13;3.90;;;;;;;4.48;66.85;99673.31;5051640;28;20041;-67
2022/12/28 09:45:44;;;;;;;6.45;3.53;;;;;;;4.69;65.96;99679.63;5052496;28;20041;-67
2022/12/28 09:48:29;;;;;;;7.70;3.60;;;;;;;5.09;65.70;99659.41;5052658;28;20432;-67
2022/12/28 09:51:15;;;;;;;6.97;3.80;;;;;;;4.76;65.51;99644.81;5079760;28;20079;-67
2022/12/28 09:54:03;;;;;;;6.18;4.07;;;;;;;4.67;65.30;99650.25;5037674;28;20060;-68
2022/12/28 09:56:48;;;;;;;5.20;3.63;;;;;;;4.77;65.75;99648.22;5041407;28;20053;-68
2022/12/28 09:59:35;;;;;;;4.65;3.20;;;;;;;4.83;64.78;99655.81;5052404;28;20052;-69
2022/12/28 10:02:31;;;;;;;7.13;3.30;;;;;;;4.63;66.06;99656.44;5050554;28;20045;-67
2022/12/28 10:05:16;;;;;;;6.05;3.10;;;;;;;5.12;65.52;99655.84;5052306;28;20107;-68
2022/12/28 10:08:01;;;;;;;4.65;3.13;;;;;;;5.52;62.69;99664.06;5041125;28;20053;-67
2022/12/28 10:10:48;;;;;;;6.50;3.35;;;;;;;5.48;64.14;99660.75;5050444;28;20184;-68
2022/12/28 10:13:37;;;;;;;5.60;3.22;;;;;;;5.27;63.78;99664.91;5051510;28;20037;-68
2022/12/28 10:16:24;;;;;;;6.30;3.30;;;;;;;5.91;62.55;99657.56;5051817;28;20159;-68
2022/12/28 10:19:15;;;;;;;4.68;2.80;;;;;;;6.97;58.77;99643.28;5051285;28;20045;-69
2022/12/28 10:22:07;;;;;;;7.13;3.33;;;;;;;7.63;57.04;99633.69;5051809;28;20040;-72
2022/12/28 10:24:53;;;;;;;5.05;3.13;;;;;;;7.22;58.79;99634.50;5051778;28;20132;-71
2022/12/28 10:27:38;;;;;;;5.32;3.03;;;;;;;7.77;57.67;99629.63;5036127;28;20087;-72
2022/12/28 10:30:28;;;;;;;4.78;3.03;;;;;;;7.30;57.69;99615.94;5049908;28;20119;-71
2022/12/28 10:33:18;;;;;;;4.78;2.80;;;;;;;9.11;55.05;99618.38;5049024;28;20440;-73
2022/12/28 10:36:02;;;;;;;6.60;3.25;;;;;;;9.18;53.34;99610.22;5042461;28;20045;-71
2022/12/28 10:38:53;;;;;;;5.07;2.90;;;;;;;8.54;55.70;99607.97;5050167;28;20041;-71
2022/12/28 10:41:39;;;;;;;4.95;3.08;;;;;;;7.40;57.84;99603.38;5050534;28;20072;-70
2022/12/28 10:44:32;;;;;;;5.35;3.30;;;;;;;6.72;59.62;99602.59;5051403;28;20045;-71
2022/12/28 10:47:30;;;;;;;5.50;2.70;;;;;;;7.21;59.92;99596.34;5041825;28;20412;-71
2022/12/28 10:50:36;;;;;;;5.07;3.28;;;;;;;9.37;53.12;99589.22;5024241;28;20099;-72
2022/12/28 10:53:29;;;;;;;5.28;3.20;;;;;;;11.05;49.19;99589.97;5035924;28;20056;-72
2022/12/28 10:56:31;;;;;;;5.25;3.38;;;;;;;11.40;47.82;99588.84;5050848;28;20178;-71
2022/12/28 10:59:29;;;;;;;5.32;3.78;;;;;;;10.58;48.04;99594.34;5051054;28;20057;-72
2022/12/28 11:02:25;;;;;;;6.18;3.63;;;;;;;10.75;50.01;99580.31;5050824;28;20067;-72
2022/12/28 11:05:20;;;;;;;6.72;3.03;;;;;;;11.56;48.24;99575.66;5057896;28;20049;-69
2022/12/28 11:08:15;;;;;;;4.38;3.08;;;;;;;11.57;46.88;99569.47;5053246;28;20057;-71
2022/12/28 11:11:02;;;;;;;4.05;2.80;;;;;;;12.19;45.04;99562.25;5034536;28;20044;-72
2022/12/28 11:14:01;;;;;;;5.50;2.63;;;;;;;13.47;44.75;99550.56;5050862;28;20128;-72
2022/12/28 11:16:46;;;;;;;4.85;2.72;;;;;;;13.46;43.31;99556.78;5041759;28;20084;-72
2022/12/28 11:19:30;;;;;;;4.40;2.40;;;;;;;14.16;43.33;99545.88;5038136;28;20116;-73
2022/12/28 11:22:21;;;;;;;4.20;2.53;;;;;;;14.86;41.45;99542.66;5050661;28;20120;-71
2022/12/28 11:25:06;;;;;;;5.05;2.97;;;;;;;14.95;41.67;99541.16;5049443;28;20131;-71
2022/12/28 11:27:50;;;;;;;6.35;3.10;;;;;;;13.84;41.75;99549.00;5040139;28;20102;-70
2022/12/28 11:30:35;;;;;;;6.50;3.20;;;;;;;13.17;43.92;99533.28;5050584;28;20045;-73
2022/12/28 11:33:40;;;;;;;4.07;2.80;;;;;;;13.32;44.01;99531.38;5049248;28;20053;-75
2022/12/28 11:36:27;;;;;;;4.38;2.65;;;;;;;12.32;45.38;99533.44;5049376;28;20051;-71
2022/12/28 11:39:24;;;;;;;6.20;3.03;;;;;;;11.82;47.18;99525.13;5049860;28;20056;-72
2022/12/28 11:42:10;;;;;;;5.18;2.05;;;;;;;11.81;50.00;99516.44;5082930;28;20392;-73
2022/12/28 11:44:54;;;;;;;2.95;2.00;;;;;;;12.43;48.48;99500.38;5036365;28;20432;-73
2022/12/28 11:47:40;;;;;;;4.60;3.03;;;;;;;11.56;48.26;99490.84;5034904;28;20033;-71
2022/12/28 11:50:37;;;;;;;4.90;2.70;;;;;;;10.84;51.49;99481.94;5015672;28;20460;-70
2022/12/28 11:53:31;;;;;;;7.45;3.80;;;;;;;10.02;51.36;99479.50;5015728;28;20081;-74
2022/12/28 11:56:21;;;;;;;5.90;3.13;;;;;;;9.79;51.21;99486.84;5029424;28;20056;-71
2022/12/28 11:59:21;;;;;;;4.37;2.97;;;;;;;9.78;52.28;99479.91;5019836;28;20065;-70
2022/12/28 12:02:28;;;;;;;4.00;2.67;;;;;;;9.49;54.09;99468.31;5034070;28;20124;-71
2022/12/28 12:05:38;;;;;;;5.70;3.22;;;;;;;9.98;52.05;99453.50;5047705;28;20064;-69
2022/12/28 12:08:22;;;;;;;4.25;3.08;;;;;;;9.62;52.92;99451.94;5047997;28;20060;-69
2022/12/28 12:11:25;;;;;;;4.82;3.17;;;;;;;9.91;52.31;99443.44;5045230;28;20145;-70
2022/12/28 12:14:10;;;;;;;5.15;3.13;;;;;;;10.00;51.69;99450.81;5049857;28;20602;-70
2022/12/28 12:17:21;;;;;;;5.22;3.00;;;;;;;9.76;51.97;99442.53;5062197;28;20158;-68
2022/12/28 12:20:17;;;;;;;8.60;3.25;;;;;;;10.31;51.68;99435.13;5048324;28;20118;-68
2022/12/28 12:23:10;;;;;;;5.60;2.63;;;;;;;10.88;50.36;99435.44;5028208;28;20054;-70
2022/12/28 12:25:58;;;;;;;7.50;2.92;;;;;;;10.75;50.30;99437.94;5034777;28;20041;-70
2022/12/28 12:28:45;;;;;;;5.07;2.35;;;;;;;11.15;49.71;99438.16;5019440;28;20128;-69
2022/12/28 12:31:36;;;;;;;4.28;2.50;;;;;;;11.90;48.03;99433.63;5032899;28;20184;-70
2022/12/28 12:34:41;;;;;;;4.30;2.60;;;;;;;11.62;47.71;99437.16;5039100;28;20049;-70
2022/12/28 12:37:36;;;;;;;3.42;2.10;;;;;;;11.21;48.58;99435.16;5038675;28;20051;-70
2022/12/28 12:40:50;;;;;;;4.95;2.30;;;;;;;10.79;49.26;99427.16;5049354;28;20096;-70
2022/12/28 12:44:10;;;;;;;5.03;2.53;;;;;;;10.69;50.32;99434.72;5044188;28;20044;-68
2022/12/28 12:47:21;;;;;;;3.47;2.03;;;;;;;10.12;50.76;99424.88;5049788;28;20049;-68
2022/12/28 12:50:24;;;;;;;4.10;2.35;;;;;;;10.94;49.25;99428.03;5048942;28;20049;-68
2022/12/28 12:53:50;;;;;;;4.70;2.60;;;;;;;11.39;48.87;99416.63;5049581;28;20037;-69
2022/12/28 12:56:47;;;;;;;4.35;3.10;;;;;;;10.67;49.63;99409.56;5052906;28;20122;-69
2022/12/28 12:59:37;;;;;;;6.10;3.90;;;;;;;10.00;50.96;99406.31;5051879;28;20093;-68
2022/12/28 13:02:51;;;;;;;5.45;3.65;;;;;;;10.35;49.91;99403.44;5052903;28;20056;-68
2022/12/28 13:05:41;;;;;;;5.95;3.10;;;;;;;9.96;50.84;99399.53;5052445;28;20057;-68
2022/12/28 13:08:35;;;;;;;5.82;3.13;;;;;;;10.22;50.99;99399.84;5052865;28;20045;-68
2022/12/28 13:11:21;;;;;;;4.70;2.97;;;;;;;10.46;50.95;99399.38;5051658;28;20567;-68
2022/12/28 13:14:17;;;;;;;3.70;2.30;;;;;;;10.89;49.08;99398.63;5051635;28;20404;-68
2022/12/28 13:17:03;;;;;;;4.97;2.40;;;;;;;12.33;46.21;99400.28;5051792;28;20037;-70
2022/12/28 13:19:47;;;;;;;4.40;2.55;;;;;;;12.04;46.95;99387.25;5041694;28;20037;-69
2022/12/28 13:22:32;;;;;;;6.22;3.20;;;;;;;11.26;48.33;99384.22;5051441;28;20109;-69
2022/12/28 13:25:26;;;;;;;5.32;3.42;;;;;;;10.67;49.42;99394.69;5052881;28;20069;-68
2022/12/28 13:28:25;;;;;;;5.05;3.38;;;;;;;11.02;48.84;99384.78;5052840;28;20049;-69
2022/12/28 13:31:20;;;;;;;4.78;3.33;;;;;;;11.79;47.23;99394.94;5043679;28;20053;-69
2022/12/28 13:34:26;;;;;;;5.13;2.53;;;;;;;11.76;47.47;99400.38;5039875;28;20110;-69
2022/12/28 13:37:14;;;;;;;4.32;2.50;;;;;;;11.33;47.54;99393.41;5052382;28;20065;-69
2022/12/28 13:40:15;;;;;;;6.03;3.30;;;;;;;12.06;47.01;99386.19;5051313;28;20108;-68
2022/12/28 13:43:11;;;;;;;6.65;3.13;;;;;;;11.79;47.88;99397.56;5038266;28;20048;-69
2022/12/28 13:46:00;;;;;;;4.25;2.72;;;;;;;11.80;46.34;99383.47;5052106;28;20515;-69
2022/12/28 13:48:47;;;;;;;5.22;3.38;;;;;;;11.01;48.45;99390.97;5052139;28;20045;-70